Time;durP1;ratioP1;P1;durP2;ratioP2;P2;SDS_P1;SDS_P2;PMS_P1;PMS_P2;Temp;Humidity;BMP_temperature;BMP_pressure;BME280_temperature;BME280_humidity;BME280_pressure;Samples;Min_cycle;Max_cycle;Signal;HPM_P1;HPM_P2
2022/10/01 00:02:17;;;;;;;7.80;6.60;;;23.40;99.90;;;;;;6281392;27;88309;-64
2022/10/01 00:05:19;;;;;;;8.27;6.57;;;23.40;99.90;;;;;;6284082;27;89002;-64
2022/10/01 00:08:21;;;;;;;8.23;6.90;;;23.40;99.90;;;;;;6280298;27;89156;-65
2022/10/01 00:11:25;;;;;;;9.60;6.85;;;23.40;99.90;;;;;;6271256;27;90056;-65
2022/10/01 00:14:28;;;;;;;7.50;6.18;;;23.40;99.90;;;;;;6285535;27;88509;-64
2022/10/01 00:17:31;;;;;;;7.68;6.40;;;23.30;99.90;;;;;;6282774;27;88090;-64
2022/10/01 00:20:34;;;;;;;8.75;6.28;;;23.40;99.90;;;;;;6282849;27;89127;-65
2022/10/01 00:23:37;;;;;;;7.78;6.43;;;23.30;99.90;;;;;;6278606;27;89332;-64
2022/10/01 00:26:39;;;;;;;8.75;6.70;;;23.40;99.90;;;;;;6281542;27;89007;-65
2022/10/01 00:29:43;;;;;;;9.63;6.75;;;23.40;99.90;;;;;;6280029;27;89216;-64
2022/10/01 00:32:46;;;;;;;7.68;6.28;;;23.30;99.90;;;;;;6282910;27;88410;-65
2022/10/01 00:35:48;;;;;;;7.65;6.28;;;23.40;99.90;;;;;;6281249;27;89230;-64
2022/10/01 00:38:50;;;;;;;6.80;5.85;;;23.30;99.90;;;;;;6282322;27;90767;-64
2022/10/01 00:41:52;;;;;;;8.25;6.13;;;23.30;99.90;;;;;;6281823;27;88960;-64
2022/10/01 00:44:55;;;;;;;7.22;5.43;;;23.30;99.90;;;;;;6281259;27;89178;-64
2022/10/01 00:47:59;;;;;;;8.45;5.85;;;23.30;99.90;;;;;;6282764;27;89054;-64
2022/10/01 00:51:02;;;;;;;7.78;6.18;;;23.30;99.90;;;;;;6281576;27;89658;-64
2022/10/01 00:54:10;;;;;;;7.40;6.05;;;23.30;99.90;;;;;;6280419;27;88000;-65
2022/10/01 00:57:16;;;;;;;7.18;6.20;;;23.30;99.90;;;;;;6282597;27;89158;-65
2022/10/01 01:00:19;;;;;;;7.50;6.32;;;23.30;99.90;;;;;;6274814;27;89084;-64
2022/10/01 01:03:22;;;;;;;7.80;6.00;;;23.30;99.90;;;;;;6279316;27;88397;-64
2022/10/01 01:06:24;;;;;;;6.72;6.00;;;23.30;99.90;;;;;;6279113;27;89157;-64
2022/10/01 01:09:30;;;;;;;6.30;5.60;;;23.20;99.90;;;;;;6278217;27;89152;-64
2022/10/01 01:12:47;;;;;;;6.78;5.82;;;23.30;99.90;;;;;;6278973;27;89951;-64
2022/10/01 01:15:56;;;;;;;5.95;5.35;;;23.20;99.90;;;;;;6283979;27;89325;-64
2022/10/01 01:19:04;;;;;;;6.45;5.70;;;23.20;99.90;;;;;;6276292;27;88571;-64
2022/10/01 01:22:10;;;;;;;6.97;5.53;;;23.20;99.90;;;;;;6280107;27;89024;-64
2022/10/01 01:25:18;;;;;;;7.20;5.95;;;23.20;99.90;;;;;;6281016;27;89257;-64
2022/10/01 01:28:30;;;;;;;7.57;6.10;;;23.20;99.90;;;;;;6272290;27;89168;-64
2022/10/01 01:31:37;;;;;;;6.97;5.88;;;23.20;99.90;;;;;;6279272;27;89170;-65
2022/10/01 01:34:43;;;;;;;7.32;6.40;;;23.20;99.90;;;;;;6279681;27;88374;-65
2022/10/01 01:37:50;;;;;;;6.60;5.90;;;23.20;99.90;;;;;;6281967;27;88262;-64
2022/10/01 01:40:55;;;;;;;6.68;5.97;;;23.10;99.90;;;;;;6280591;27;89176;-65
2022/10/01 01:44:02;;;;;;;7.00;5.95;;;23.20;99.90;;;;;;6280053;27;90119;-64
2022/10/01 01:47:06;;;;;;;6.63;5.85;;;23.20;99.90;;;;;;6280489;27;89097;-64
2022/10/01 01:50:11;;;;;;;6.78;5.88;;;23.20;99.90;;;;;;6275754;27;89432;-65
2022/10/01 01:53:14;;;;;;;5.90;5.30;;;23.20;99.90;;;;;;6281392;27;89137;-64
2022/10/01 01:56:16;;;;;;;6.57;5.80;;;23.20;99.90;;;;;;6281395;27;88021;-64
2022/10/01 01:59:20;;;;;;;6.30;5.38;;;23.20;99.90;;;;;;6280764;27;89035;-65
2022/10/01 02:02:26;;;;;;;6.25;5.65;;;23.10;99.90;;;;;;6281441;27;89154;-65
2022/10/01 02:05:34;;;;;;;6.47;5.88;;;23.10;99.90;;;;;;6277960;27;88697;-64
2022/10/01 02:08:40;;;;;;;6.72;5.97;;;23.10;99.90;;;;;;6279653;27;89131;-65
2022/10/01 02:11:53;;;;;;;6.53;5.82;;;23.10;99.90;;;;;;6280639;27;87993;-65
2022/10/01 02:15:05;;;;;;;6.78;5.90;;;23.10;99.90;;;;;;6288622;27;89946;-64
2022/10/01 02:18:15;;;;;;;7.47;6.18;;;23.10;99.90;;;;;;6280312;27;89128;-64
2022/10/01 02:21:22;;;;;;;6.78;5.93;;;23.10;99.90;;;;;;6273007;27;89047;-65
2022/10/01 02:24:31;;;;;;;6.32;5.72;;;23.10;99.90;;;;;;6281517;27;89113;-65
2022/10/01 02:27:38;;;;;;;6.35;5.75;;;23.10;99.90;;;;;;6278453;27;89153;-65
2022/10/01 02:30:43;;;;;;;6.45;5.60;;;23.10;99.90;;;;;;6280629;27;89034;-64
2022/10/01 02:33:47;;;;;;;6.55;5.85;;;23.10;99.90;;;;;;6280333;27;89546;-65
2022/10/01 02:36:49;;;;;;;6.20;5.60;;;23.10;99.90;;;;;;6274496;27;88353;-64
2022/10/01 02:39:54;;;;;;;6.15;5.55;;;23.10;99.90;;;;;;6281259;27;89111;-65
2022/10/01 02:43:02;;;;;;;6.05;5.45;;;23.00;99.90;;;;;;6278617;27;89035;-65
2022/10/01 02:46:14;;;;;;;6.20;5.60;;;23.10;99.90;;;;;;6279272;27;90425;-65
2022/10/01 02:49:16;;;;;;;6.70;5.78;;;23.10;99.90;;;;;;6265570;27;89863;-65
2022/10/01 02:52:24;;;;;;;6.38;5.65;;;23.10;99.90;;;;;;6280520;27;89107;-65
2022/10/01 02:55:29;;;;;;;6.85;6.13;;;23.10;99.90;;;;;;6265685;27;89015;-65
2022/10/01 02:58:30;;;;;;;6.65;5.57;;;23.10;99.90;;;;;;6266055;27;89556;-65
2022/10/01 03:01:33;;;;;;;6.03;5.43;;;23.10;99.90;;;;;;6268088;27;89142;-65
2022/10/01 03:04:37;;;;;;;6.00;5.40;;;23.00;99.90;;;;;;6281305;27;89118;-64
2022/10/01 03:07:39;;;;;;;6.00;5.40;;;23.00;99.90;;;;;;6267763;27;87684;-65
2022/10/01 03:10:41;;;;;;;6.20;5.53;;;23.00;99.90;;;;;;6273402;27;89599;-65
2022/10/01 03:13:43;;;;;;;6.03;5.43;;;23.00;99.90;;;;;;6270053;27;89090;-65
2022/10/01 03:16:47;;;;;;;6.35;5.43;;;23.00;99.90;;;;;;6268807;27;90065;-64
2022/10/01 03:19:49;;;;;;;6.53;5.82;;;23.00;99.90;;;;;;6275870;27;89100;-65
2022/10/01 03:22:51;;;;;;;5.85;5.25;;;23.00;99.90;;;;;;6280524;27;89122;-65
2022/10/01 03:25:53;;;;;;;6.28;5.47;;;23.00;99.90;;;;;;6281859;27;89059;-65
2022/10/01 03:28:55;;;;;;;5.60;5.10;;;23.00;99.90;;;;;;6281216;27;89296;-64
2022/10/01 03:31:58;;;;;;;5.70;5.10;;;23.00;99.90;;;;;;6280971;27;89108;-64
2022/10/01 03:35:00;;;;;;;5.80;5.20;;;23.00;99.90;;;;;;6280481;27;88021;-65
2022/10/01 03:38:02;;;;;;;5.95;5.35;;;23.00;99.90;;;;;;6284784;27;88404;-65
2022/10/01 03:41:04;;;;;;;5.65;5.05;;;23.10;99.90;;;;;;6284771;27;89117;-64
2022/10/01 03:44:06;;;;;;;5.80;5.20;;;23.10;99.90;;;;;;6284546;27;89068;-65
2022/10/01 03:47:10;;;;;;;5.88;5.30;;;23.10;99.90;;;;;;6284366;27;90035;-64
2022/10/01 03:50:12;;;;;;;5.80;5.22;;;23.10;99.90;;;;;;6285794;27;89094;-64
2022/10/01 03:53:14;;;;;;;5.97;5.32;;;23.10;99.90;;;;;;6272350;27;89085;-64
2022/10/01 03:56:17;;;;;;;5.60;5.10;;;23.10;99.90;;;;;;6284941;27;89332;-64
2022/10/01 03:59:20;;;;;;;5.43;4.93;;;23.20;99.90;;;;;;6285078;27;89081;-65
2022/10/01 04:02:24;;;;;;;5.45;4.95;;;23.20;99.90;;;;;;6285164;27;89247;-64
2022/10/01 04:05:26;;;;;;;5.60;5.00;;;23.20;99.90;;;;;;6285460;27;89043;-65
2022/10/01 04:08:28;;;;;;;5.88;5.28;;;23.20;99.90;;;;;;6285416;27;87762;-65
2022/10/01 04:11:30;;;;;;;5.45;4.90;;;23.30;99.90;;;;;;6284992;27;89085;-65
2022/10/01 04:14:32;;;;;;;5.68;5.05;;;23.30;99.90;;;;;;6285602;27;89424;-65
2022/10/01 04:17:36;;;;;;;5.22;4.72;;;23.30;99.90;;;;;;6284491;27;90074;-65
2022/10/01 04:20:38;;;;;;;7.40;5.05;;;23.30;99.90;;;;;;6284123;27;89194;-65
2022/10/01 04:23:40;;;;;;;6.07;4.95;;;23.30;99.90;;;;;;6284076;27;89120;-65
2022/10/01 04:26:42;;;;;;;9.27;5.18;;;23.30;99.90;;;;;;6284456;27;89044;-64
2022/10/01 04:29:44;;;;;;;7.40;4.80;;;23.20;99.90;;;;;;6283956;27;87944;-64
2022/10/01 04:32:48;;;;;;;8.57;5.75;;;23.30;99.90;;;;;;6284436;27;88999;-64
2022/10/01 04:35:50;;;;;;;6.20;5.50;;;23.30;99.90;;;;;;6283681;27;89338;-60
2022/10/01 04:38:52;;;;;;;9.10;8.20;;;23.30;99.90;;;;;;6284553;27;87237;-63
2022/10/01 04:41:54;;;;;;;11.27;10.27;;;23.30;99.90;;;;;;6285845;27;89092;-64
2022/10/01 04:44:56;;;;;;;21.50;19.80;;;23.40;99.90;;;;;;6282629;27;89054;-64
2022/10/01 04:48:00;;;;;;;13.13;11.98;;;23.40;99.90;;;;;;6279620;27;89944;-64
2022/10/01 04:51:02;;;;;;;16.92;15.32;;;23.40;99.90;;;;;;6282436;27;89137;-64
2022/10/01 04:54:04;;;;;;;14.65;13.25;;;23.50;99.90;;;;;;6280374;27;89071;-64
2022/10/01 04:57:06;;;;;;;12.13;11.05;;;23.80;99.90;;;;;;6280903;27;89407;-64
2022/10/01 05:00:11;;;;;;;12.25;11.15;;;24.20;99.90;;;;;;6280406;27;89145;-64
2022/10/01 05:03:15;;;;;;;14.48;13.18;;;24.50;99.90;;;;;;6282056;27;89043;-64
2022/10/01 05:06:17;;;;;;;14.73;13.52;;;24.60;99.90;;;;;;6276755;27;89113;-64
2022/10/01 05:09:19;;;;;;;13.82;12.70;;;24.60;99.90;;;;;;6282968;27;88421;-64
2022/10/01 05:12:21;;;;;;;13.00;11.60;;;24.50;99.90;;;;;;6282231;27;88989;-64
2022/10/01 05:15:23;;;;;;;13.68;12.48;;;24.50;99.90;;;;;;6281751;27;89179;-64
2022/10/01 05:18:26;;;;;;;714.53;460.17;;;24.40;99.90;;;;;;6272015;27;90021;-64
2022/10/01 05:21:28;;;;;;;124.82;73.25;;;24.40;99.90;;;;;;6279976;27;89108;-64
2022/10/01 05:24:30;;;;;;;90.40;52.50;;;24.30;99.90;;;;;;6282295;27;89003;-65
2022/10/01 05:27:35;;;;;;;82.97;51.63;;;24.20;99.90;;;;;;6277066;27;89020;-64
2022/10/01 05:30:37;;;;;;;89.90;51.15;;;24.10;99.90;;;;;;6281544;27;88712;-65
2022/10/01 05:33:41;;;;;;;77.32;47.30;;;24.10;99.90;;;;;;6280626;27;88992;-64
2022/10/01 05:36:43;;;;;;;76.07;45.10;;;24.00;99.90;;;;;;6280924;27;89243;-64
2022/10/01 05:39:45;;;;;;;58.65;36.85;;;24.00;99.90;;;;;;6281515;27;88313;-64
2022/10/01 05:42:47;;;;;;;64.72;35.67;;;23.90;99.90;;;;;;6281296;27;89137;-64
2022/10/01 05:45:50;;;;;;;55.90;34.38;;;23.90;99.90;;;;;;6281005;27;88965;-65
2022/10/01 05:48:53;;;;;;;59.17;37.30;;;23.90;99.90;;;;;;6279465;27;90105;-64
2022/10/01 05:51:55;;;;;;;59.42;36.17;;;23.90;99.90;;;;;;6283073;27;88212;-65
2022/10/01 05:54:58;;;;;;;59.10;35.78;;;23.90;99.90;;;;;;6279861;27;88211;-64
2022/10/01 05:58:01;;;;;;;53.88;35.50;;;23.90;99.90;;;;;;6280031;27;90010;-64
2022/10/01 06:01:04;;;;;;;55.65;33.85;;;23.90;99.90;;;;;;6278458;27;89039;-65
2022/10/01 06:04:09;;;;;;;53.00;32.72;;;23.80;99.90;;;;;;6275214;27;89154;-64
2022/10/01 06:07:12;;;;;;;52.03;32.45;;;23.80;99.90;;;;;;6280257;27;89115;-65
2022/10/01 06:10:14;;;;;;;47.90;32.17;;;23.80;99.90;;;;;;6281492;27;88891;-64
2022/10/01 06:13:16;;;;;;;47.92;31.42;;;23.90;99.90;;;;;;6280822;27;89161;-64
2022/10/01 06:16:19;;;;;;;48.65;31.52;;;23.80;99.90;;;;;;6280789;27;88917;-64
2022/10/01 06:19:23;;;;;;;46.53;29.98;;;23.80;99.90;;;;;;6281173;27;90372;-65
2022/10/01 06:22:25;;;;;;;47.17;30.13;;;23.80;99.90;;;;;;6276598;27;88188;-65
2022/10/01 06:25:29;;;;;;;45.20;30.10;;;23.80;99.90;;;;;;6279706;27;89098;-65
2022/10/01 06:28:31;;;;;;;45.35;28.88;;;23.70;99.90;;;;;;6280641;27;88030;-64
2022/10/01 06:31:33;;;;;;;43.45;28.63;;;23.80;99.90;;;;;;6280805;27;89118;-65
2022/10/01 06:34:37;;;;;;;43.03;27.35;;;23.80;99.90;;;;;;6280876;27;89088;-64
2022/10/01 06:37:39;;;;;;;40.20;27.27;;;23.80;99.90;;;;;;6280316;27;89158;-64
2022/10/01 06:40:41;;;;;;;40.85;26.58;;;23.70;99.90;;;;;;6279739;27;88403;-64
2022/10/01 06:43:43;;;;;;;40.40;26.17;;;23.80;99.90;;;;;;6273552;27;89142;-64
2022/10/01 06:46:45;;;;;;;37.75;26.67;;;23.70;99.90;;;;;;6280879;27;89100;-64
2022/10/01 06:49:49;;;;;;;41.88;25.83;;;23.80;99.90;;;;;;6280580;27;89961;-64
2022/10/01 06:52:51;;;;;;;36.72;25.55;;;23.80;99.90;;;;;;6280084;27;89084;-64
2022/10/01 06:55:53;;;;;;;35.25;23.85;;;23.80;99.90;;;;;;6278095;27;89105;-64
2022/10/01 06:58:55;;;;;;;36.33;24.58;;;23.70;99.90;;;;;;6278625;27;89079;-64
2022/10/01 07:01:57;;;;;;;35.80;23.75;;;23.80;99.90;;;;;;6278516;27;89004;-64
2022/10/01 07:05:01;;;;;;;35.17;23.35;;;23.80;99.90;;;;;;6278944;27;89070;-64
2022/10/01 07:08:03;;;;;;;27.58;18.73;;;23.80;99.90;;;;;;6280327;27;89465;-64
2022/10/01 07:11:05;;;;;;;34.28;20.85;;;23.80;99.90;;;;;;6276135;27;88589;-63
2022/10/01 07:14:07;;;;;;;30.63;20.30;;;23.80;99.90;;;;;;6283548;27;89372;-63
2022/10/01 07:17:09;;;;;;;33.38;20.10;;;23.90;99.90;;;;;;6281861;27;88024;-63
2022/10/01 07:20:13;;;;;;;31.77;20.98;;;24.00;99.90;;;;;;6281749;27;89997;-64
2022/10/01 07:23:16;;;;;;;30.60;19.88;;;24.00;99.90;;;;;;6283322;27;89095;-63
2022/10/01 07:26:18;;;;;;;29.70;19.70;;;24.10;99.90;;;;;;6283289;27;89195;-64
2022/10/01 07:29:20;;;;;;;32.67;20.08;;;24.10;99.90;;;;;;6283616;27;89226;-63
2022/10/01 07:32:22;;;;;;;29.95;18.52;;;24.10;99.90;;;;;;6284967;27;89152;-63
2022/10/01 07:35:25;;;;;;;23.27;17.65;;;24.10;99.90;;;;;;6284764;27;87900;-63
2022/10/01 07:38:27;;;;;;;28.90;18.48;;;24.20;99.90;;;;;;6283003;27;89058;-63
2022/10/01 07:41:29;;;;;;;25.45;18.48;;;24.10;99.90;;;;;;6284212;27;87229;-63
2022/10/01 07:44:32;;;;;;;25.60;17.80;;;24.20;99.90;;;;;;6283857;27;89541;-63
2022/10/01 07:47:34;;;;;;;24.70;17.83;;;24.10;99.90;;;;;;6284855;27;89363;-63
2022/10/01 07:50:37;;;;;;;23.23;17.30;;;24.10;99.90;;;;;;6282908;27;90237;-63
2022/10/01 07:53:39;;;;;;;24.67;17.08;;;24.10;99.90;;;;;;6283523;27;88539;-63
2022/10/01 07:56:41;;;;;;;23.10;17.42;;;24.10;99.90;;;;;;6283491;27;88060;-63
2022/10/01 07:59:43;;;;;;;25.13;16.83;;;24.10;99.90;;;;;;6284248;27;89044;-64
2022/10/01 08:02:48;;;;;;;24.70;17.33;;;24.10;99.90;;;;;;6282948;27;87746;-63
2022/10/01 08:05:53;;;;;;;24.33;16.80;;;24.10;99.90;;;;;;6283532;27;89031;-63
2022/10/01 08:08:55;;;;;;;22.55;16.90;;;24.10;99.90;;;;;;6276814;27;89005;-63
2022/10/01 08:11:57;;;;;;;22.45;16.05;;;24.10;99.90;;;;;;6284419;27;88415;-63
2022/10/01 08:15:01;;;;;;;24.77;16.45;;;24.10;99.90;;;;;;6282817;27;88203;-63
2022/10/01 08:18:03;;;;;;;21.60;16.30;;;24.10;99.90;;;;;;6282716;27;89325;-63
2022/10/01 08:21:07;;;;;;;19.20;15.15;;;24.10;99.90;;;;;;6283064;27;90018;-64
2022/10/01 08:24:09;;;;;;;22.52;15.40;;;24.10;99.90;;;;;;6282823;27;88924;-63
2022/10/01 08:27:11;;;;;;;22.40;15.40;;;24.10;99.90;;;;;;6281602;27;89079;-64
2022/10/01 08:30:13;;;;;;;19.90;15.50;;;24.10;99.90;;;;;;6282646;27;89080;-64
2022/10/01 08:33:15;;;;;;;19.70;14.75;;;24.10;99.90;;;;;;6281968;27;89458;-64
2022/10/01 08:36:19;;;;;;;19.77;14.27;;;24.10;99.90;;;;;;6283371;27;89103;-63
2022/10/01 08:39:22;;;;;;;20.10;14.38;;;24.10;99.90;;;;;;6282465;27;88980;-63
2022/10/01 08:42:42;;;;;;;21.70;14.27;;;24.10;99.90;;;;;;6283360;27;88328;-63
2022/10/01 08:45:47;;;;;;;19.65;14.68;;;24.10;99.90;;;;;;6282511;27;89073;-64
2022/10/01 08:48:59;;;;;;;20.60;14.43;;;24.10;99.90;;;;;;6283037;27;88721;-63
2022/10/01 08:52:12;;;;;;;20.88;13.95;;;24.10;99.90;;;;;;6281627;27;90182;-63
2022/10/01 08:55:19;;;;;;;18.75;13.68;;;24.10;99.90;;;;;;6282973;27;89129;-63
2022/10/01 08:58:29;;;;;;;19.67;13.68;;;24.10;99.90;;;;;;6283370;27;89084;-63
2022/10/01 09:01:31;;;;;;;16.65;13.45;;;24.10;99.90;;;;;;6284041;27;89173;-64
2022/10/01 09:04:33;;;;;;;17.23;13.30;;;24.10;99.90;;;;;;6282321;27;89289;-63
2022/10/01 09:07:51;;;;;;;17.45;13.20;;;24.10;99.90;;;;;;6282031;27;89379;-63
2022/10/01 09:10:57;;;;;;;15.23;12.77;;;24.10;99.90;;;;;;6281575;27;88906;-63
2022/10/01 09:14:20;;;;;;;17.17;12.70;;;24.10;99.90;;;;;;6282731;27;87183;-64
2022/10/01 09:17:36;;;;;;;17.10;12.57;;;24.10;99.90;;;;;;6279093;27;89213;-64
2022/10/01 09:20:42;;;;;;;18.08;13.13;;;24.10;99.90;;;;;;6274320;27;89146;-64
2022/10/01 09:23:58;;;;;;;15.50;12.30;;;24.10;99.90;;;;;;6281474;27;89922;-63
2022/10/01 09:27:01;;;;;;;15.55;11.35;;;24.10;99.90;;;;;;6281857;27;89112;-63
2022/10/01 09:30:06;;;;;;;16.00;12.25;;;24.10;99.90;;;;;;6280932;27;89127;-63
2022/10/01 09:33:15;;;;;;;15.57;12.02;;;24.10;99.90;;;;;;6282067;27;89203;-64
2022/10/01 09:36:26;;;;;;;15.65;11.95;;;24.10;99.90;;;;;;6280662;27;89017;-63
2022/10/01 09:39:34;;;;;;;13.88;11.93;;;24.10;99.90;;;;;;6270830;27;89102;-64
2022/10/01 09:42:37;;;;;;;14.73;11.70;;;24.10;99.90;;;;;;6269369;27;89042;-64
2022/10/01 09:45:39;;;;;;;15.15;11.73;;;24.10;99.90;;;;;;6281799;27;89199;-64
2022/10/01 09:48:45;;;;;;;14.45;10.98;;;24.10;99.90;;;;;;6281167;27;89098;-63
2022/10/01 09:51:53;;;;;;;14.18;11.15;;;24.10;99.90;;;;;;6281607;27;89062;-64
2022/10/01 09:55:02;;;;;;;13.63;11.02;;;24.00;99.90;;;;;;6274688;27;89985;-64
2022/10/01 09:58:12;;;;;;;15.65;11.60;;;24.10;99.90;;;;;;6282723;27;89171;-64
2022/10/01 10:01:22;;;;;;;13.98;11.02;;;24.10;99.90;;;;;;6282042;27;89193;-64
2022/10/01 10:04:25;;;;;;;16.17;11.38;;;24.10;99.90;;;;;;6280907;27;89094;-64
2022/10/01 10:07:31;;;;;;;13.23;10.32;;;24.10;99.90;;;;;;6281813;27;89010;-64
2022/10/01 10:10:38;;;;;;;13.00;10.70;;;24.10;99.90;;;;;;6281002;27;88258;-64
2022/10/01 10:13:42;;;;;;;12.77;10.60;;;24.10;99.90;;;;;;6268880;27;88812;-64
2022/10/01 10:16:46;;;;;;;12.00;9.77;;;24.00;99.90;;;;;;6281259;27;88624;-64
2022/10/01 10:19:51;;;;;;;12.48;10.57;;;24.10;99.90;;;;;;6282155;27;89372;-64
2022/10/01 10:22:53;;;;;;;12.00;10.27;;;24.10;99.90;;;;;;6280284;27;91437;-63
2022/10/01 10:25:59;;;;;;;11.45;9.90;;;24.10;99.90;;;;;;6278623;27;90005;-64
2022/10/01 10:29:03;;;;;;;11.63;9.60;;;24.10;99.90;;;;;;6281656;27;89308;-64
2022/10/01 10:32:15;;;;;;;11.43;9.63;;;24.00;99.90;;;;;;6281789;27;89140;-64
2022/10/01 10:35:20;;;;;;;12.20;9.80;;;24.00;99.90;;;;;;6281295;27;87934;-63
2022/10/01 10:38:25;;;;;;;12.52;9.73;;;24.00;99.90;;;;;;6281741;27;88238;-63
2022/10/01 10:41:30;;;;;;;11.85;9.73;;;24.10;99.90;;;;;;6281711;27;89391;-63
2022/10/01 10:44:37;;;;;;;11.73;9.68;;;24.10;99.90;;;;;;6280581;27;89120;-63
2022/10/01 10:47:45;;;;;;;11.45;9.27;;;24.00;99.90;;;;;;6281158;27;88268;-64
2022/10/01 10:50:47;;;;;;;11.50;9.40;;;24.00;99.90;;;;;;6270031;27;89069;-64
2022/10/01 10:53:49;;;;;;;11.48;8.73;;;24.10;99.90;;;;;;6280867;27;89563;-64
2022/10/01 10:56:55;;;;;;;12.45;8.95;;;24.00;99.90;;;;;;6280761;27;88885;-63
2022/10/01 10:59:59;;;;;;;10.32;8.73;;;24.00;99.90;;;;;;6280603;27;87932;-63
2022/10/01 11:03:05;;;;;;;11.35;8.95;;;24.00;99.90;;;;;;6267905;27;88223;-64
2022/10/01 11:06:11;;;;;;;10.82;8.57;;;24.00;99.90;;;;;;6280730;27;89044;-64
2022/10/01 11:09:18;;;;;;;11.05;8.55;;;24.10;99.90;;;;;;6273075;27;89078;-64
2022/10/01 11:12:37;;;;;;;10.70;8.77;;;24.00;99.90;;;;;;6280902;27;88961;-64
2022/10/01 11:15:54;;;;;;;10.45;8.18;;;24.00;99.90;;;;;;6280325;27;89251;-63
2022/10/01 11:19:11;;;;;;;9.52;7.82;;;24.00;99.90;;;;;;6280982;27;88507;-64
2022/10/01 11:22:27;;;;;;;9.40;8.02;;;24.00;99.90;;;;;;6280451;27;88990;-64
2022/10/01 11:25:40;;;;;;;9.85;8.52;;;24.00;99.90;;;;;;6281209;27;89027;-64
2022/10/01 11:28:52;;;;;;;8.77;7.82;;;24.00;99.90;;;;;;6279204;27;90349;-64
2022/10/01 11:32:03;;;;;;;9.68;7.78;;;24.00;99.90;;;;;;6279492;27;87982;-64
2022/10/01 11:35:25;;;;;;;9.57;8.02;;;24.00;99.90;;;;;;6280794;27;89062;-64
2022/10/01 11:38:47;;;;;;;8.85;7.95;;;24.00;99.90;;;;;;6280420;27;89027;-64
2022/10/01 11:41:52;;;;;;;8.32;7.25;;;24.00;99.90;;;;;;6280534;27;89003;-63
2022/10/01 11:45:03;;;;;;;9.55;7.50;;;24.00;99.90;;;;;;6280293;27;87999;-64
2022/10/01 11:48:11;;;;;;;8.23;7.32;;;24.00;99.90;;;;;;6280053;27;88572;-64
2022/10/01 11:51:19;;;;;;;8.45;7.55;;;24.00;99.90;;;;;;6279231;27;88508;-64
2022/10/01 11:54:26;;;;;;;8.38;7.57;;;24.00;99.90;;;;;;6280155;27;89154;-64
2022/10/01 12:00:58;;;;;;;8.32;7.18;;;24.00;99.90;;;;;;6284195;27;88646;-63
2022/10/01 12:04:31;;;;;;;8.43;6.97;;;24.00;99.90;;;;;;6285100;27;89015;-63
2022/10/01 12:07:42;;;;;;;8.30;7.40;;;24.00;99.90;;;;;;6275216;27;88975;-64
2022/10/01 12:10:47;;;;;;;7.68;6.68;;;24.00;99.90;;;;;;6284291;27;89110;-64
2022/10/01 12:13:57;;;;;;;7.72;6.78;;;24.00;99.90;;;;;;6284797;27;89193;-64
2022/10/01 12:17:11;;;;;;;8.02;6.68;;;24.00;99.90;;;;;;6284170;27;89095;-64
2022/10/01 12:20:23;;;;;;;8.05;7.05;;;24.00;99.90;;;;;;6283926;27;88573;-64
2022/10/01 12:23:29;;;;;;;7.45;6.50;;;24.00;99.90;;;;;;6284408;27;88437;-64
2022/10/01 12:26:41;;;;;;;8.45;6.95;;;24.00;99.90;;;;;;6272715;27;87915;-64
2022/10/01 12:29:49;;;;;;;7.72;6.45;;;24.00;99.90;;;;;;6272050;27;89876;-63
2022/10/01 12:33:39;;;;;;;8.70;6.57;;;24.00;99.90;;;;;;6282988;27;89913;-64
2022/10/01 12:36:50;;;;;;;8.00;6.32;;;24.00;99.90;;;;;;6196008;28;87989;-64
2022/10/01 12:40:05;;;;;;;7.43;6.35;;;24.00;99.90;;;;;;6292795;27;88929;-64
2022/10/01 12:43:41;;;;;;;7.90;6.10;;;23.90;99.90;;;;;;6283773;27;89233;-63
2022/10/01 12:46:51;;;;;;;6.57;5.88;;;23.90;99.90;;;;;;6260527;27;89649;-64
2022/10/01 12:50:03;;;;;;;9.65;5.40;;;23.90;99.90;;;;;;6283276;27;88983;-64
2022/10/01 12:53:29;;;;;;;7.93;5.40;;;23.90;99.90;;;;;;6282868;27;89560;-65
2022/10/01 12:56:37;;;;;;;7.72;5.88;;;23.90;99.90;;;;;;6283061;27;88289;-64
2022/10/01 12:59:57;;;;;;;8.13;5.50;;;24.00;99.90;;;;;;6282373;27;89161;-64
2022/10/01 13:03:31;;;;;;;5.90;5.20;;;23.90;99.90;;;;;;6281717;27;88865;-64
2022/10/01 13:06:47;;;;;;;8.25;5.40;;;23.90;99.90;;;;;;6249417;27;90179;-64
2022/10/01 13:10:02;;;;;;;7.30;5.32;;;24.00;99.90;;;;;;6279727;27;89131;-64
2022/10/01 13:13:11;;;;;;;5.97;5.38;;;23.90;99.90;;;;;;6282600;27;87952;-64
2022/10/01 13:16:21;;;;;;;6.13;4.90;;;24.00;99.90;;;;;;6281058;27;89101;-64
2022/10/01 13:19:30;;;;;;;5.88;5.20;;;23.90;99.90;;;;;;6282021;27;89083;-65
2022/10/01 13:22:43;;;;;;;7.30;5.28;;;24.00;99.90;;;;;;6280723;27;87984;-65
2022/10/01 13:25:58;;;;;;;5.60;5.00;;;23.90;99.90;;;;;;6281634;27;89198;-64
2022/10/01 13:29:10;;;;;;;5.57;5.03;;;23.90;99.90;;;;;;6281039;27;88336;-64
2022/10/01 13:32:28;;;;;;;6.70;5.10;;;23.90;99.90;;;;;;6281276;27;89171;-64
2022/10/01 13:35:34;;;;;;;5.38;4.88;;;23.90;99.90;;;;;;6278939;27;87984;-64
2022/10/01 13:38:42;;;;;;;5.75;5.10;;;23.90;99.90;;;;;;6280461;27;89398;-63
2022/10/01 13:41:46;;;;;;;5.70;4.78;;;23.90;99.90;;;;;;6281432;27;88997;-63
2022/10/01 13:44:53;;;;;;;5.10;4.60;;;23.90;99.90;;;;;;6282100;27;89075;-64
2022/10/01 13:48:07;;;;;;;6.28;4.60;;;23.90;99.90;;;;;;6281507;27;89345;-63
2022/10/01 13:51:12;;;;;;;5.18;4.57;;;23.90;99.90;;;;;;6268192;27;89114;-64
2022/10/01 13:54:26;;;;;;;5.88;4.90;;;23.90;99.90;;;;;;6279803;27;89072;-64
2022/10/01 13:57:35;;;;;;;5.47;4.50;;;23.90;99.90;;;;;;6282502;27;89142;-64
2022/10/01 14:00:48;;;;;;;6.80;4.53;;;23.90;99.90;;;;;;6282076;27;88376;-64
2022/10/01 14:03:56;;;;;;;6.32;4.15;;;23.90;99.90;;;;;;6282206;27;88039;-64
2022/10/01 14:07:03;;;;;;;6.18;3.97;;;23.90;99.90;;;;;;6281556;27;89469;-64
2022/10/01 14:10:10;;;;;;;4.95;4.15;;;23.90;99.90;;;;;;6269298;27;89854;-64
2022/10/01 14:16:37;;;;;;;5.32;3.60;;;23.90;99.90;;;;;;6281398;27;88043;-64
2022/10/01 14:19:45;;;;;;;4.47;4.07;;;23.80;99.90;;;;;;6281803;27;87954;-64
2022/10/01 14:23:03;;;;;;;4.07;3.40;;;23.80;99.90;;;;;;6279901;27;89007;-64
2022/10/01 14:26:17;;;;;;;3.65;3.35;;;23.80;99.90;;;;;;6279475;27;89095;-64
2022/10/01 14:29:34;;;;;;;4.95;3.60;;;23.80;99.90;;;;;;6277639;27;88285;-64
2022/10/01 14:32:54;;;;;;;4.63;3.42;;;23.80;99.90;;;;;;6281298;27;88324;-64
2022/10/01 14:36:03;;;;;;;3.97;3.35;;;23.80;99.90;;;;;;6275227;27;89072;-64
2022/10/01 14:39:14;;;;;;;4.40;2.92;;;23.80;99.90;;;;;;6275256;27;89215;-64
2022/10/01 14:42:17;;;;;;;4.13;3.40;;;23.80;99.90;;;;;;6273543;27;89932;-65
2022/10/01 14:45:21;;;;;;;4.45;3.50;;;23.80;99.90;;;;;;6280699;27;89141;-64
2022/10/01 14:48:24;;;;;;;4.03;3.33;;;23.80;99.90;;;;;;6281175;27;89044;-64
2022/10/01 14:51:29;;;;;;;3.95;3.10;;;23.80;99.90;;;;;;6281709;27;89446;-64
2022/10/01 14:54:38;;;;;;;3.53;3.10;;;23.70;99.90;;;;;;6281203;27;89465;-65
2022/10/01 14:57:42;;;;;;;3.47;3.10;;;23.70;99.90;;;;;;6281268;27;89024;-65
2022/10/01 15:00:50;;;;;;;3.72;2.95;;;23.70;99.90;;;;;;6274139;27;89403;-65
2022/10/01 15:03:53;;;;;;;3.88;2.92;;;23.80;99.90;;;;;;6262617;27;87167;-64
2022/10/01 15:07:04;;;;;;;4.80;3.05;;;23.80;99.90;;;;;;6280638;27;88335;-64
2022/10/01 15:10:08;;;;;;;3.42;2.95;;;23.80;99.90;;;;;;6280192;27;89095;-64
2022/10/01 15:13:17;;;;;;;5.13;2.67;;;23.70;99.90;;;;;;6280666;27;90082;-65
2022/10/01 15:16:22;;;;;;;3.92;3.10;;;23.70;99.90;;;;;;6279507;27;89057;-64
2022/10/01 15:19:25;;;;;;;3.20;2.75;;;23.80;99.90;;;;;;6280573;27;89068;-64
2022/10/01 15:22:29;;;;;;;3.13;2.83;;;23.70;99.90;;;;;;6280165;27;89255;-63
2022/10/01 15:25:32;;;;;;;4.78;3.13;;;23.70;99.90;;;;;;6280097;27;89183;-64
2022/10/01 15:28:36;;;;;;;4.18;2.75;;;23.70;99.90;;;;;;6278379;27;89305;-64
2022/10/01 15:31:40;;;;;;;4.22;3.22;;;23.70;99.90;;;;;;6279259;27;89230;-63
2022/10/01 15:34:47;;;;;;;3.80;2.80;;;23.70;99.90;;;;;;6285258;27;88269;-63
2022/10/01 15:37:51;;;;;;;6.00;2.88;;;23.70;99.90;;;;;;6285611;27;89243;-65
2022/10/01 15:40:57;;;;;;;3.45;2.58;;;23.80;99.90;;;;;;6283496;27;87764;-65
2022/10/01 15:44:02;;;;;;;5.00;2.83;;;23.70;99.90;;;;;;6283602;27;90258;-65
2022/10/01 15:47:24;;;;;;;6.78;2.88;;;23.80;99.90;;;;;;6284672;27;89026;-65
2022/10/01 15:50:27;;;;;;;7.18;3.00;;;23.70;99.90;;;;;;6284540;27;89023;-65
2022/10/01 15:53:30;;;;;;;9.13;3.10;;;23.80;99.90;;;;;;6283226;27;88247;-64
2022/10/01 15:56:32;;;;;;;6.55;3.10;;;23.80;99.90;;;;;;6284537;27;88963;-64
2022/10/01 15:59:36;;;;;;;5.03;2.67;;;23.80;99.90;;;;;;6283995;27;89057;-65
2022/10/01 16:02:39;;;;;;;6.53;2.80;;;23.80;99.90;;;;;;6284403;27;89115;-63
2022/10/01 16:05:46;;;;;;;7.53;3.05;;;23.80;99.90;;;;;;6283387;27;88328;-65